Time;durP1;ratioP1;P1;durP2;ratioP2;P2;SDS_P1;SDS_P2;PMS_P1;PMS_P2;Temp;Humidity;BMP_temperature;BMP_pressure;BME280_temperature;BME280_humidity;BME280_pressure;Samples;Min_cycle;Max_cycle;Signal;HPM_P1;HPM_P2
2022/03/22 00:00:16;;;;;;;15.18;7.15;;;18.80;46.20;;;;;;6074044;23;20162;-87
2022/03/22 00:02:43;;;;;;;18.23;7.85;;;18.80;46.60;;;;;;6071072;23;20171;-87
2022/03/22 00:05:15;;;;;;;21.45;7.53;;;18.90;46.20;;;;;;6069627;23;20156;-87
2022/03/22 00:07:47;;;;;;;15.05;7.40;;;18.80;46.20;;;;;;6047037;23;20472;-87
2022/03/22 00:10:14;;;;;;;15.65;7.63;;;18.70;46.00;;;;;;6068936;23;20155;-87
2022/03/22 00:12:42;;;;;;;16.27;7.80;;;18.80;46.30;;;;;;6064016;23;20519;-88
2022/03/22 00:15:10;;;;;;;14.98;7.25;;;18.80;46.10;;;;;;6085911;23;20179;-87
2022/03/22 00:17:37;;;;;;;14.50;7.70;;;18.70;46.30;;;;;;6061561;23;20179;-87
2022/03/22 00:20:05;;;;;;;15.82;7.50;;;18.80;46.40;;;;;;6062094;23;20155;-87
2022/03/22 00:22:35;;;;;;;15.52;7.60;;;18.80;46.10;;;;;;6039376;23;20155;-87
2022/03/22 00:25:07;;;;;;;16.02;7.63;;;18.80;46.40;;;;;;6062458;23;20151;-87
2022/03/22 00:30:19;;;;;;;13.32;7.38;;;18.80;46.40;;;;;;6093854;23;20155;-87
2022/03/22 00:32:46;;;;;;;16.15;7.65;;;18.80;45.80;;;;;;6061879;23;20209;-87
2022/03/22 00:35:13;;;;;;;16.55;7.50;;;18.80;46.30;;;;;;6136319;23;20178;-86
2022/03/22 00:37:49;;;;;;;16.95;7.60;;;18.80;46.20;;;;;;6111471;23;20254;-89
2022/03/22 00:40:19;;;;;;;16.15;7.22;;;18.80;46.20;;;;;;6088128;23;20225;-87
2022/03/22 00:42:52;;;;;;;18.55;7.22;;;18.70;46.20;;;;;;6063332;23;20162;-88
2022/03/22 00:45:21;;;;;;;14.45;7.45;;;18.70;46.30;;;;;;6053179;23;20199;-87
2022/03/22 00:47:55;;;;;;;15.25;8.05;;;18.70;46.10;;;;;;6153898;23;20140;-86
2022/03/22 00:50:23;;;;;;;18.52;8.15;;;18.80;46.20;;;;;;6104785;23;20203;-86
2022/03/22 00:52:55;;;;;;;13.18;7.00;;;18.70;46.60;;;;;;6150378;23;20135;-86
2022/03/22 00:55:23;;;;;;;15.25;7.72;;;18.70;46.20;;;;;;6103936;23;20162;-85
2022/03/22 00:57:51;;;;;;;11.65;7.03;;;18.70;46.30;;;;;;6124622;23;20179;-87
2022/03/22 01:00:25;;;;;;;13.32;7.43;;;18.70;46.10;;;;;;6149106;23;20342;-85
2022/03/22 01:03:04;;;;;;;16.80;7.60;;;18.70;46.50;;;;;;6076170;23;20222;-85
2022/03/22 01:05:43;;;;;;;17.48;8.07;;;18.70;46.60;;;;;;6043596;23;20489;-85
2022/03/22 01:08:11;;;;;;;13.60;7.30;;;18.70;46.70;;;;;;6086788;23;20150;-87
2022/03/22 01:10:38;;;;;;;16.70;8.38;;;18.60;46.50;;;;;;6135000;23;20140;-85
2022/03/22 01:13:09;;;;;;;12.15;6.93;;;18.60;46.60;;;;;;6135637;23;20143;-86
2022/03/22 01:15:42;;;;;;;13.52;7.88;;;18.60;47.50;;;;;;6062543;23;20162;-84
2022/03/22 01:18:13;;;;;;;12.65;7.30;;;18.70;46.80;;;;;;6063899;23;20179;-87
2022/03/22 01:20:42;;;;;;;16.85;8.40;;;18.60;46.80;;;;;;6061795;23;20583;-85
2022/03/22 01:23:09;;;;;;;16.48;7.40;;;18.50;47.10;;;;;;6110204;23;20150;-86
2022/03/22 01:25:35;;;;;;;13.88;7.55;;;18.60;46.70;;;;;;6135129;23;20179;-85
2022/03/22 01:28:02;;;;;;;14.45;7.57;;;18.60;46.60;;;;;;6135717;23;20136;-86
2022/03/22 01:30:30;;;;;;;15.00;7.05;;;18.60;46.90;;;;;;6135397;23;20136;-85
2022/03/22 01:33:03;;;;;;;15.32;7.70;;;18.60;47.00;;;;;;6135358;23;20132;-86
2022/03/22 01:35:29;;;;;;;13.95;7.35;;;18.50;46.60;;;;;;6038765;23;20179;-84
2022/03/22 01:37:55;;;;;;;14.85;8.15;;;18.50;46.80;;;;;;6135779;23;20242;-86
2022/03/22 01:40:23;;;;;;;15.90;7.65;;;18.50;46.90;;;;;;6111319;23;20507;-85
2022/03/22 01:42:49;;;;;;;12.88;7.68;;;18.50;47.00;;;;;;6165020;23;20143;-86
2022/03/22 01:45:20;;;;;;;14.18;7.32;;;18.50;47.00;;;;;;6164456;23;20702;-85
2022/03/22 01:47:46;;;;;;;13.20;7.15;;;18.50;46.80;;;;;;6089997;23;20205;-87
2022/03/22 01:50:20;;;;;;;16.55;7.90;;;18.50;46.90;;;;;;6139697;23;20620;-86
2022/03/22 01:52:54;;;;;;;20.25;7.80;;;18.50;46.90;;;;;;6068940;23;20158;-87
2022/03/22 01:55:20;;;;;;;12.85;7.20;;;18.50;46.90;;;;;;6092875;23;20158;-86
2022/03/22 01:57:50;;;;;;;16.38;7.93;;;18.50;47.20;;;;;;6166671;23;20252;-87
2022/03/22 02:00:19;;;;;;;16.35;7.68;;;18.50;46.90;;;;;;6093305;23;20155;-85
2022/03/22 02:08:25;;;;;;;13.48;8.15;;;18.50;46.90;;;;;;6106074;23;20178;-86
2022/03/22 02:10:51;;;;;;;13.35;7.95;;;18.50;47.20;;;;;;6141086;23;20155;-85
2022/03/22 02:13:18;;;;;;;14.65;8.25;;;18.50;47.30;;;;;;6141160;23;20143;-86
2022/03/22 02:15:49;;;;;;;14.50;7.30;;;18.50;46.90;;;;;;6165833;23;20135;-85
2022/03/22 02:18:16;;;;;;;13.73;7.78;;;18.50;47.30;;;;;;6091528;23;20220;-86
2022/03/22 02:20:42;;;;;;;14.68;7.60;;;18.40;47.30;;;;;;6141337;23;20513;-85
2022/03/22 02:23:46;;;;;;;11.55;7.63;;;18.40;47.30;;;;;;6141180;23;20143;-87
2022/03/22 02:26:12;;;;;;;11.68;7.35;;;18.40;47.40;;;;;;6191448;23;20177;-86
2022/03/22 02:28:43;;;;;;;14.98;8.00;;;18.40;47.60;;;;;;6140084;23;20226;-86
2022/03/22 02:31:09;;;;;;;14.65;7.68;;;18.40;47.30;;;;;;6115546;23;20216;-87
2022/03/22 02:33:35;;;;;;;17.73;7.60;;;18.40;47.50;;;;;;6165255;23;20177;-87
2022/03/22 02:36:02;;;;;;;12.82;7.32;;;18.40;47.50;;;;;;6115681;23;20154;-86
2022/03/22 02:38:28;;;;;;;13.02;7.40;;;18.40;47.30;;;;;;6090451;23;20305;-85
2022/03/22 02:40:53;;;;;;;12.43;7.28;;;18.40;47.80;;;;;;6115712;23;20194;-86
2022/03/22 02:43:19;;;;;;;14.43;7.35;;;18.40;47.70;;;;;;6141012;23;20566;-87
2022/03/22 02:45:46;;;;;;;17.58;7.45;;;18.40;47.50;;;;;;6116210;23;20143;-86
2022/03/22 02:48:12;;;;;;;14.73;7.28;;;18.40;47.20;;;;;;6115682;23;20158;-85
2022/03/22 02:50:39;;;;;;;12.05;7.60;;;18.40;47.10;;;;;;6165099;23;20139;-85
2022/03/22 02:53:05;;;;;;;14.68;7.25;;;18.40;47.50;;;;;;6140737;23;20143;-86
2022/03/22 02:55:32;;;;;;;16.38;8.15;;;18.40;47.50;;;;;;6191305;23;20177;-86
2022/03/22 02:57:58;;;;;;;14.18;7.75;;;18.40;47.80;;;;;;6140490;23;20174;-87
2022/03/22 03:00:26;;;;;;;13.82;7.82;;;18.30;47.50;;;;;;6116879;23;20217;-85
2022/03/22 03:02:53;;;;;;;13.90;7.70;;;18.30;47.80;;;;;;6091691;23;20151;-86
2022/03/22 03:05:24;;;;;;;13.02;7.57;;;18.30;47.20;;;;;;6090864;23;20155;-86
2022/03/22 03:07:52;;;;;;;12.23;8.05;;;18.30;47.80;;;;;;6066911;23;20161;-86
2022/03/22 03:10:21;;;;;;;14.80;7.63;;;18.40;47.80;;;;;;6090624;23;20182;-86
2022/03/22 03:13:00;;;;;;;15.18;8.00;;;18.30;47.60;;;;;;6066669;23;20159;-85
2022/03/22 03:15:27;;;;;;;15.27;7.43;;;18.30;47.90;;;;;;6091798;23;20208;-87
2022/03/22 03:17:53;;;;;;;13.45;7.32;;;18.30;47.60;;;;;;6140815;23;20209;-87
2022/03/22 03:20:19;;;;;;;14.73;7.72;;;18.30;47.60;;;;;;6140298;23;20182;-86
2022/03/22 03:22:49;;;;;;;16.95;7.82;;;18.30;47.60;;;;;;6141377;23;20153;-87
2022/03/22 03:25:16;;;;;;;15.15;7.97;;;18.30;47.70;;;;;;6067498;23;20151;-87
2022/03/22 03:27:45;;;;;;;14.95;7.80;;;18.30;47.90;;;;;;6167017;23;20482;-84
2022/03/22 03:30:11;;;;;;;11.18;7.35;;;18.30;47.60;;;;;;6116482;23;20185;-85
2022/03/22 03:32:37;;;;;;;11.80;7.85;;;18.30;48.20;;;;;;6192145;23;20142;-86
2022/03/22 03:35:04;;;;;;;14.85;7.97;;;18.30;47.60;;;;;;6165742;23;20135;-86
2022/03/22 03:37:35;;;;;;;12.98;7.18;;;18.20;47.80;;;;;;6164739;23;20165;-87
2022/03/22 03:40:05;;;;;;;15.68;8.15;;;18.30;48.40;;;;;;6091670;23;20614;-86
2022/03/22 03:42:31;;;;;;;14.18;7.57;;;18.30;47.50;;;;;;6139994;23;20202;-86
2022/03/22 03:47:37;;;;;;;15.40;8.10;;;18.30;47.70;;;;;;6167408;23;20503;-86
2022/03/22 03:50:07;;;;;;;13.45;8.07;;;18.30;47.40;;;;;;6164622;23;20139;-86
2022/03/22 03:52:39;;;;;;;12.80;7.78;;;18.30;47.20;;;;;;6091221;23;20154;-86
2022/03/22 03:55:10;;;;;;;12.27;7.78;;;18.20;47.40;;;;;;6090674;23;20181;-87
2022/03/22 03:57:41;;;;;;;12.93;7.70;;;18.30;47.50;;;;;;6091439;23;20192;-87
2022/03/22 04:00:07;;;;;;;12.68;7.78;;;18.20;47.70;;;;;;6067869;23;20181;-87
2022/03/22 04:02:33;;;;;;;15.63;7.88;;;18.20;47.50;;;;;;6163896;23;20131;-87
2022/03/22 04:05:07;;;;;;;17.25;7.93;;;18.30;47.50;;;;;;6140024;23;20225;-85
2022/03/22 04:07:33;;;;;;;14.65;7.88;;;18.30;47.80;;;;;;6067517;23;20154;-86
2022/03/22 04:10:03;;;;;;;14.07;7.78;;;18.30;47.10;;;;;;6164311;23;20157;-85
2022/03/22 04:12:39;;;;;;;13.40;7.72;;;18.20;47.60;;;;;;6090712;23;20526;-86
2022/03/22 04:15:05;;;;;;;15.07;8.13;;;18.30;47.50;;;;;;6094210;23;20177;-85
2022/03/22 04:17:32;;;;;;;11.52;7.75;;;18.20;47.90;;;;;;6164617;23;20162;-86
2022/03/22 04:19:58;;;;;;;12.18;7.57;;;18.20;47.90;;;;;;6164702;23;20127;-87
2022/03/22 04:22:27;;;;;;;14.05;8.00;;;18.20;47.90;;;;;;6164774;23;20223;-87
2022/03/22 04:24:53;;;;;;;12.95;8.45;;;18.10;47.50;;;;;;6114197;23;20154;-85
2022/03/22 04:32:58;;;;;;;12.25;8.05;;;18.20;47.80;;;;;;6106908;23;20234;-87
2022/03/22 04:35:28;;;;;;;15.05;8.30;;;18.20;47.50;;;;;;6140370;23;20209;-86
2022/03/22 04:37:55;;;;;;;11.23;7.95;;;18.20;47.70;;;;;;6114823;23;20187;-86
2022/03/22 04:40:26;;;;;;;12.00;7.80;;;18.20;47.80;;;;;;6140492;23;20174;-86
2022/03/22 04:42:51;;;;;;;14.88;8.52;;;18.20;47.90;;;;;;6134378;23;20300;-86
2022/03/22 04:45:22;;;;;;;18.13;7.93;;;18.20;47.80;;;;;;6110359;23;20564;-86
2022/03/22 04:47:49;;;;;;;13.18;7.47;;;18.20;48.20;;;;;;6085000;23;20159;-87
2022/03/22 04:50:16;;;;;;;14.25;8.13;;;18.20;47.70;;;;;;6111183;23;20167;-85
2022/03/22 04:58:09;;;;;;;11.20;7.57;;;18.20;48.10;;;;;;6115356;23;20183;-86
2022/03/22 05:00:39;;;;;;;16.20;8.07;;;18.20;47.80;;;;;;6111024;23;20186;-86
2022/03/22 05:03:09;;;;;;;11.38;7.50;;;18.20;47.90;;;;;;6109767;23;20151;-85
2022/03/22 05:08:21;;;;;;;10.88;7.90;;;18.20;48.00;;;;;;6096675;23;20155;-86
2022/03/22 05:10:48;;;;;;;11.85;7.95;;;18.20;48.00;;;;;;6085200;23;20214;-86
2022/03/22 05:13:14;;;;;;;13.10;7.78;;;18.20;47.80;;;;;;6110024;23;20163;-86
2022/03/22 05:15:44;;;;;;;12.90;8.00;;;18.20;47.90;;;;;;6109853;23;20156;-86
2022/03/22 05:18:11;;;;;;;15.27;8.00;;;18.10;47.70;;;;;;6086390;23;20190;-87
2022/03/22 05:20:40;;;;;;;13.40;8.02;;;18.20;48.00;;;;;;6086716;23;20177;-86
2022/03/22 05:23:10;;;;;;;12.73;8.10;;;18.10;47.80;;;;;;6085830;23;20230;-87
2022/03/22 05:25:36;;;;;;;12.73;7.88;;;18.10;47.20;;;;;;6086466;23;20546;-87
2022/03/22 05:28:03;;;;;;;12.45;7.80;;;18.20;48.00;;;;;;6137884;23;20143;-88
2022/03/22 05:30:31;;;;;;;11.77;8.00;;;18.20;47.80;;;;;;6114311;23;20147;-87
2022/03/22 05:32:56;;;;;;;15.13;7.75;;;18.20;47.60;;;;;;6090922;23;20154;-86
2022/03/22 05:35:23;;;;;;;13.00;8.25;;;18.20;47.70;;;;;;6114264;23;20139;-87
2022/03/22 05:37:51;;;;;;;12.63;8.20;;;18.10;47.50;;;;;;6114486;23;20181;-88
2022/03/22 05:40:17;;;;;;;15.65;8.57;;;18.20;47.50;;;;;;6091280;23;20148;-87
2022/03/22 05:42:46;;;;;;;10.73;7.60;;;18.20;47.80;;;;;;6119916;23;20684;-85
2022/03/22 05:45:15;;;;;;;9.55;7.50;;;18.20;47.50;;;;;;6098301;23;20157;-86
2022/03/22 05:47:45;;;;;;;13.07;7.68;;;18.20;47.30;;;;;;6074274;23;20209;-85
2022/03/22 05:50:16;;;;;;;13.52;7.70;;;18.10;47.10;;;;;;6097303;23;20159;-86
2022/03/22 05:52:45;;;;;;;12.07;7.75;;;18.20;46.90;;;;;;6121716;23;20172;-86
2022/03/22 05:55:16;;;;;;;12.30;7.45;;;18.30;47.20;;;;;;6073761;23;20158;-86
2022/03/22 05:57:47;;;;;;;11.70;8.05;;;18.30;46.50;;;;;;6098272;23;20186;-86
2022/03/22 06:00:18;;;;;;;12.38;8.13;;;18.30;46.90;;;;;;6122114;23;20155;-86
2022/03/22 06:02:47;;;;;;;13.82;7.93;;;18.40;46.70;;;;;;6076446;23;20170;-86
2022/03/22 06:05:13;;;;;;;11.75;7.97;;;18.30;46.40;;;;;;6074764;23;20178;-85
2022/03/22 06:07:43;;;;;;;11.07;7.95;;;18.40;46.50;;;;;;6171753;23;20190;-85
2022/03/22 06:10:13;;;;;;;15.20;8.48;;;18.40;46.10;;;;;;6146841;23;20158;-87
2022/03/22 06:12:45;;;;;;;12.07;7.97;;;18.40;46.40;;;;;;6172395;23;20135;-86
2022/03/22 06:15:15;;;;;;;14.27;8.32;;;18.50;46.20;;;;;;6098869;23;20165;-86
2022/03/22 06:17:46;;;;;;;13.88;7.95;;;18.50;46.40;;;;;;6099097;23;20174;-86
2022/03/22 06:20:18;;;;;;;13.93;8.25;;;18.50;46.20;;;;;;6101084;23;20155;-85
2022/03/22 06:22:46;;;;;;;11.40;8.07;;;18.40;46.00;;;;;;6075142;23;20155;-86
2022/03/22 06:25:17;;;;;;;12.63;7.85;;;18.50;45.90;;;;;;6149142;23;20131;-85
2022/03/22 06:27:50;;;;;;;11.68;7.65;;;18.50;46.10;;;;;;6100240;23;20154;-85
2022/03/22 06:30:18;;;;;;;12.40;7.82;;;18.50;45.80;;;;;;6101424;23;20199;-86
2022/03/22 06:32:49;;;;;;;12.27;7.68;;;18.50;45.70;;;;;;6078386;23;20174;-86
2022/03/22 06:35:16;;;;;;;12.27;8.07;;;18.50;45.70;;;;;;6082321;23;20218;-86
2022/03/22 06:37:43;;;;;;;11.57;7.82;;;18.60;45.60;;;;;;6155108;23;20178;-85
2022/03/22 06:40:09;;;;;;;11.20;7.85;;;18.70;45.50;;;;;;6180201;23;20134;-87
2022/03/22 06:42:36;;;;;;;11.85;7.75;;;18.60;44.90;;;;;;6130519;23;20198;-86
2022/03/22 06:45:35;;;;;;;10.38;7.75;;;18.60;45.30;;;;;;6153354;23;20194;-88
2022/03/22 06:48:22;;;;;;;11.73;7.85;;;18.70;45.10;;;;;;6151476;23;20478;-88
2022/03/22 06:50:50;;;;;;;10.55;7.78;;;18.70;45.50;;;;;;6082843;23;20151;-88
2022/03/22 06:53:27;;;;;;;10.65;8.00;;;18.60;45.20;;;;;;6094010;23;20148;-88
2022/03/22 06:56:16;;;;;;;12.90;7.78;;;18.70;45.30;;;;;;6014274;23;20160;-87
2022/03/22 06:58:52;;;;;;;10.88;7.85;;;18.70;45.10;;;;;;6041994;23;20261;-87
2022/03/22 07:01:27;;;;;;;10.85;7.72;;;18.70;44.80;;;;;;6030945;23;20154;-88
2022/03/22 07:04:08;;;;;;;10.82;7.65;;;18.70;45.10;;;;;;5933075;24;20159;-88
2022/03/22 07:07:02;;;;;;;10.80;7.57;;;18.80;45.20;;;;;;5943458;24;20157;-88
2022/03/22 07:09:37;;;;;;;10.35;7.70;;;18.80;45.00;;;;;;5919239;24;20516;-88
2022/03/22 07:12:52;;;;;;;9.00;7.55;;;18.70;45.20;;;;;;5940983;24;20241;-88
2022/03/22 07:15:49;;;;;;;12.43;7.78;;;18.80;44.70;;;;;;5913779;24;20625;-87
2022/03/22 07:18:22;;;;;;;11.32;7.95;;;18.80;45.00;;;;;;5912673;24;20193;-88
2022/03/22 07:20:59;;;;;;;10.00;7.32;;;18.80;44.80;;;;;;5912703;24;20244;-88
2022/03/22 07:23:29;;;;;;;11.20;7.80;;;18.80;44.50;;;;;;5890139;24;20161;-87
2022/03/22 07:26:00;;;;;;;11.75;7.38;;;18.80;44.70;;;;;;5906273;24;20311;-87
2022/03/22 07:28:28;;;;;;;10.40;7.50;;;18.80;45.60;;;;;;5990580;23;20163;-86
2022/03/22 07:30:54;;;;;;;12.27;7.68;;;18.80;44.70;;;;;;5967506;24;20161;-87
2022/03/22 07:33:21;;;;;;;11.98;8.30;;;18.80;44.60;;;;;;5967363;23;20160;-87
2022/03/22 07:35:51;;;;;;;12.50;8.02;;;18.80;44.60;;;;;;5963240;23;20228;-87
2022/03/22 07:38:18;;;;;;;12.80;7.70;;;18.80;44.60;;;;;;6012703;23;20178;-87
2022/03/22 07:40:44;;;;;;;10.20;7.65;;;18.80;44.60;;;;;;6064184;23;20152;-87
2022/03/22 07:43:13;;;;;;;10.77;7.68;;;18.80;44.60;;;;;;6061664;23;20632;-88
2022/03/22 07:45:46;;;;;;;11.25;7.65;;;18.90;44.50;;;;;;6032743;23;20156;-88
2022/03/22 07:48:16;;;;;;;10.98;7.70;;;18.90;44.60;;;;;;6053318;23;20164;-89
2022/03/22 07:53:38;;;;;;;10.73;7.20;;;18.90;44.60;;;;;;6033442;23;20157;-88
2022/03/22 07:56:25;;;;;;;9.82;7.53;;;18.90;44.40;;;;;;6015681;23;20155;-88
2022/03/22 07:58:57;;;;;;;9.93;7.47;;;19.00;44.10;;;;;;6014715;23;20201;-88
2022/03/22 08:01:27;;;;;;;9.82;7.28;;;19.00;43.60;;;;;;5971299;23;20183;-88
2022/03/22 08:03:58;;;;;;;10.23;7.43;;;19.00;43.90;;;;;;5972055;23;20190;-88
2022/03/22 08:06:26;;;;;;;10.13;7.15;;;19.00;43.80;;;;;;5918916;24;20164;-87
2022/03/22 08:08:52;;;;;;;10.52;7.43;;;18.90;44.10;;;;;;5872530;24;20160;-87
2022/03/22 08:11:19;;;;;;;11.20;7.93;;;18.90;44.00;;;;;;5924495;24;20155;-88
2022/03/22 08:13:45;;;;;;;12.25;7.82;;;18.90;44.10;;;;;;5941278;24;20183;-88
2022/03/22 08:16:14;;;;;;;12.68;7.82;;;18.90;43.70;;;;;;5989245;24;20155;-87
2022/03/22 08:18:42;;;;;;;10.23;7.45;;;19.00;44.10;;;;;;5947023;24;20190;-87
2022/03/22 08:21:11;;;;;;;9.43;7.57;;;19.10;43.50;;;;;;5970261;23;20160;-87
2022/03/22 08:23:39;;;;;;;9.68;7.32;;;19.10;44.20;;;;;;5987350;24;20166;-88
2022/03/22 08:26:13;;;;;;;10.98;7.93;;;19.10;43.30;;;;;;5965851;24;20162;-89
2022/03/22 08:28:42;;;;;;;9.32;7.35;;;19.10;43.30;;;;;;5969734;23;20150;-90
2022/03/22 08:31:11;;;;;;;8.68;7.13;;;19.10;43.10;;;;;;6119452;23;20158;-86
2022/03/22 08:33:36;;;;;;;8.65;7.50;;;19.10;43.30;;;;;;6120185;23;20138;-88
2022/03/22 08:36:03;;;;;;;8.98;7.35;;;19.10;43.10;;;;;;6121313;23;20165;-87
2022/03/22 08:38:34;;;;;;;11.75;7.55;;;19.10;43.20;;;;;;6171499;23;20625;-87
2022/03/22 08:41:01;;;;;;;11.70;7.35;;;19.20;42.70;;;;;;6122922;23;20170;-87
2022/03/22 08:43:32;;;;;;;10.23;7.47;;;19.20;43.50;;;;;;6122846;23;20459;-89
2022/03/22 08:46:05;;;;;;;11.68;7.55;;;19.10;43.10;;;;;;6096173;23;20237;-87
2022/03/22 08:48:37;;;;;;;10.10;7.45;;;19.10;43.20;;;;;;6096056;23;20162;-87
2022/03/22 08:51:08;;;;;;;10.50;7.18;;;19.10;43.00;;;;;;6094498;23;20165;-87
2022/03/22 08:53:33;;;;;;;8.60;7.10;;;19.20;43.00;;;;;;6094658;23;20154;-89
2022/03/22 08:56:03;;;;;;;9.23;7.18;;;19.20;42.50;;;;;;6119571;23;20209;-88
2022/03/22 08:58:30;;;;;;;13.52;7.85;;;19.30;42.80;;;;;;6142348;23;20181;-88
2022/03/22 09:00:58;;;;;;;11.23;8.00;;;19.20;42.80;;;;;;6118817;23;20150;-88
2022/03/22 09:03:27;;;;;;;11.07;7.60;;;19.20;42.20;;;;;;6093163;23;20151;-88
2022/03/22 09:06:12;;;;;;;13.35;8.25;;;19.30;42.60;;;;;;6093560;23;20186;-88
2022/03/22 09:08:43;;;;;;;12.00;7.35;;;19.20;42.60;;;;;;6102663;23;20193;-88
2022/03/22 09:11:09;;;;;;;10.68;7.43;;;19.20;43.20;;;;;;6072469;23;20174;-88
2022/03/22 09:13:38;;;;;;;15.02;7.80;;;19.20;42.60;;;;;;6120839;23;20150;-88
2022/03/22 09:16:05;;;;;;;12.02;7.70;;;19.30;42.40;;;;;;6145506;23;20135;-88
2022/03/22 09:18:34;;;;;;;11.70;8.07;;;19.30;42.50;;;;;;6118106;23;20213;-87
2022/03/22 09:21:03;;;;;;;10.65;7.82;;;19.30;42.60;;;;;;6093745;23;20151;-89
2022/03/22 09:23:32;;;;;;;12.02;7.97;;;19.20;42.70;;;;;;6093990;23;20150;-89
2022/03/22 09:26:00;;;;;;;10.07;7.20;;;19.30;42.20;;;;;;6068823;23;20157;-88
2022/03/22 09:28:28;;;;;;;10.68;7.65;;;19.30;42.20;;;;;;6093641;23;20183;-88
2022/03/22 09:30:54;;;;;;;12.10;7.05;;;19.30;42.40;;;;;;6118234;23;20150;-88
2022/03/22 09:33:23;;;;;;;11.90;7.75;;;19.30;42.60;;;;;;6119781;23;20178;-88
2022/03/22 09:36:01;;;;;;;10.40;7.22;;;19.30;42.80;;;;;;6095064;23;20155;-88
2022/03/22 09:38:27;;;;;;;11.52;7.32;;;19.40;43.10;;;;;;6094699;23;20186;-88
2022/03/22 09:40:53;;;;;;;10.38;7.68;;;19.30;43.10;;;;;;6120298;23;20166;-88
2022/03/22 09:43:23;;;;;;;10.68;7.70;;;19.30;43.00;;;;;;6118571;23;20151;-88
2022/03/22 09:45:52;;;;;;;11.25;7.97;;;19.30;43.00;;;;;;6069246;23;20150;-88
2022/03/22 09:48:20;;;;;;;10.07;7.68;;;19.30;43.00;;;;;;6093053;23;20150;-88
2022/03/22 09:53:35;;;;;;;11.82;7.82;;;19.30;42.70;;;;;;6122798;23;20177;-88
2022/03/22 09:56:03;;;;;;;11.80;7.40;;;19.30;43.70;;;;;;6110756;23;20157;-86
2022/03/22 09:58:31;;;;;;;13.73;7.63;;;19.30;42.80;;;;;;6086845;23;20186;-86
2022/03/22 10:00:59;;;;;;;10.27;7.95;;;19.30;42.50;;;;;;6110183;23;20155;-87
2022/03/22 10:03:28;;;;;;;10.65;7.65;;;19.30;42.70;;;;;;6110645;23;20163;-86
2022/03/22 10:06:03;;;;;;;11.38;7.82;;;19.30;42.60;;;;;;6088316;23;20178;-86
2022/03/22 10:08:36;;;;;;;9.52;7.85;;;19.20;42.70;;;;;;6063963;23;20158;-86
2022/03/22 10:11:03;;;;;;;11.40;7.93;;;19.30;42.80;;;;;;6113297;23;20238;-86
2022/03/22 10:13:33;;;;;;;9.93;7.78;;;19.20;42.80;;;;;;6064318;23;20594;-86
2022/03/22 10:16:04;;;;;;;10.45;7.78;;;19.30;41.80;;;;;;6114611;23;20158;-86
2022/03/22 10:18:37;;;;;;;10.80;7.85;;;19.20;42.40;;;;;;6089603;23;20186;-87
2022/03/22 10:21:04;;;;;;;10.73;8.02;;;19.30;42.40;;;;;;6092478;23;20233;-87
2022/03/22 10:23:33;;;;;;;10.60;8.20;;;19.30;42.20;;;;;;6089941;23;20154;-87
2022/03/22 10:26:04;;;;;;;14.05;7.93;;;19.30;42.00;;;;;;6066879;23;20186;-88
2022/03/22 10:28:35;;;;;;;11.02;7.93;;;19.30;42.40;;;;;;6066917;23;20151;-86
2022/03/22 10:31:02;;;;;;;10.63;8.02;;;19.20;42.50;;;;;;6090963;23;20158;-86
2022/03/22 10:33:32;;;;;;;10.68;8.00;;;19.30;42.20;;;;;;6117636;23;20185;-86
2022/03/22 10:35:58;;;;;;;10.57;7.90;;;19.30;42.20;;;;;;6094287;23;20154;-86
2022/03/22 10:38:25;;;;;;;9.93;7.75;;;19.30;42.10;;;;;;6116973;23;20186;-85
2022/03/22 10:40:50;;;;;;;10.52;8.40;;;19.40;41.60;;;;;;6166031;23;20127;-85
2022/03/22 10:43:23;;;;;;;10.25;8.40;;;19.30;41.80;;;;;;6140566;23;20151;-85
2022/03/22 10:45:52;;;;;;;10.23;7.57;;;19.30;42.30;;;;;;6069238;23;20179;-87
2022/03/22 10:48:27;;;;;;;11.35;8.35;;;19.40;41.70;;;;;;6106327;23;20156;-85
2022/03/22 10:50:58;;;;;;;9.57;7.55;;;19.40;42.10;;;;;;6058033;23;20214;-86
2022/03/22 10:53:28;;;;;;;11.07;7.88;;;19.30;42.10;;;;;;6059983;23;20187;-86
2022/03/22 10:55:58;;;;;;;11.10;7.85;;;19.30;42.10;;;;;;6058783;23;20156;-88
2022/03/22 10:58:27;;;;;;;9.77;7.78;;;19.30;42.50;;;;;;6034181;23;20280;-86
2022/03/22 11:00:56;;;;;;;10.13;8.30;;;19.20;42.20;;;;;;6081024;23;20589;-85
2022/03/22 11:03:29;;;;;;;11.75;8.35;;;19.20;42.40;;;;;;6058799;23;20156;-85
2022/03/22 11:06:02;;;;;;;10.85;7.97;;;19.20;42.80;;;;;;6083424;23;20240;-85
2022/03/22 11:08:30;;;;;;;11.18;8.07;;;19.20;42.20;;;;;;6084186;23;20257;-86
2022/03/22 11:11:00;;;;;;;13.00;8.07;;;19.30;42.30;;;;;;6057148;23;20628;-86
2022/03/22 11:13:32;;;;;;;10.23;8.02;;;19.30;41.90;;;;;;6058949;23;20239;-85
2022/03/22 11:16:02;;;;;;;9.70;8.15;;;19.30;42.10;;;;;;6082100;23;20156;-86
2022/03/22 11:18:30;;;;;;;10.77;8.05;;;19.30;41.90;;;;;;6104707;23;20179;-86
2022/03/22 11:20:59;;;;;;;10.30;8.10;;;19.30;42.10;;;;;;6055958;23;20179;-86
2022/03/22 11:23:28;;;;;;;10.80;8.35;;;19.30;41.90;;;;;;6080458;23;20152;-85
2022/03/22 11:26:06;;;;;;;11.70;8.13;;;19.30;42.50;;;;;;6080758;23;20156;-86
2022/03/22 11:28:38;;;;;;;12.65;7.95;;;19.30;42.40;;;;;;6032076;23;20209;-86
2022/03/22 11:31:09;;;;;;;10.30;7.60;;;19.30;42.60;;;;;;6084026;23;20203;-86
2022/03/22 11:36:18;;;;;;;11.23;8.55;;;19.20;42.50;;;;;;6099366;23;20178;-86
2022/03/22 11:38:49;;;;;;;11.05;8.05;;;19.20;42.50;;;;;;6069348;23;20179;-85
2022/03/22 11:44:36;;;;;;;12.55;8.45;;;19.20;42.70;;;;;;6148523;23;20170;-85
2022/03/22 11:47:14;;;;;;;11.82;8.32;;;19.20;42.50;;;;;;6138673;23;20139;-85
2022/03/22 11:50:04;;;;;;;12.45;8.77;;;19.20;42.30;;;;;;6095291;23;20188;-85
2022/03/22 11:52:41;;;;;;;10.35;8.10;;;19.20;42.60;;;;;;6145136;23;20157;-84
2022/03/22 11:55:17;;;;;;;11.60;8.65;;;19.20;42.20;;;;;;6074030;23;20150;-85
2022/03/22 11:57:50;;;;;;;12.70;8.57;;;19.20;42.30;;;;;;6098447;23;20182;-85
2022/03/22 12:00:21;;;;;;;10.07;8.13;;;19.20;42.50;;;;;;6095809;23;20150;-85
2022/03/22 12:02:56;;;;;;;11.65;8.13;;;19.20;42.50;;;;;;6095173;23;20146;-86
2022/03/22 12:05:24;;;;;;;11.10;7.82;;;19.30;42.20;;;;;;6094246;23;20154;-84
2022/03/22 12:07:51;;;;;;;11.07;8.20;;;19.20;42.10;;;;;;6095947;23;20598;-86
2022/03/22 12:10:20;;;;;;;11.43;8.35;;;19.20;42.50;;;;;;6071997;23;20154;-84
2022/03/22 12:12:55;;;;;;;10.23;7.90;;;19.30;42.10;;;;;;6070721;23;20542;-86
2022/03/22 12:15:24;;;;;;;9.63;8.10;;;19.30;42.40;;;;;;6123405;23;20210;-85
2022/03/22 12:17:51;;;;;;;9.80;8.10;;;19.20;42.40;;;;;;6072430;23;20182;-85
2022/03/22 12:20:19;;;;;;;11.40;8.27;;;19.20;42.30;;;;;;6098717;23;20150;-82
2022/03/22 12:22:58;;;;;;;10.48;7.97;;;19.30;42.20;;;;;;6099861;23;20157;-84
2022/03/22 12:25:27;;;;;;;12.07;8.68;;;19.10;42.00;;;;;;6076849;23;20185;-85
2022/03/22 12:27:55;;;;;;;11.77;8.45;;;19.20;42.10;;;;;;6095324;23;20241;-85
2022/03/22 12:30:29;;;;;;;11.30;8.48;;;19.20;42.40;;;;;;6093192;23;20154;-89
2022/03/22 12:33:07;;;;;;;11.60;8.65;;;19.20;42.20;;;;;;6090614;23;20154;-87
2022/03/22 12:35:35;;;;;;;10.98;8.88;;;19.20;42.20;;;;;;6066371;23;20181;-87
2022/03/22 12:38:05;;;;;;;10.05;8.23;;;19.30;42.10;;;;;;6136664;23;20203;-87
2022/03/22 12:40:45;;;;;;;;;;;;;;;;;;;;;
2022/03/22 12:43:19;;;;;;;10.52;7.75;;;19.20;41.80;;;;;;6113152;23;20351;-86
2022/03/22 12:45:50;;;;;;;11.18;8.30;;;19.30;40.20;;;;;;6070879;23;20179;-86
2022/03/22 12:48:19;;;;;;;10.27;8.63;;;19.40;40.20;;;;;;6072078;23;20162;-84
2022/03/22 12:50:49;;;;;;;10.40;7.80;;;19.40;40.60;;;;;;6069532;23;20166;-87
2022/03/22 12:53:19;;;;;;;10.82;8.40;;;19.40;41.10;;;;;;6071519;23;20158;-85
2022/03/22 12:55:47;;;;;;;10.27;8.02;;;19.50;40.90;;;;;;6051330;23;20187;-86
2022/03/22 12:58:14;;;;;;;9.85;7.88;;;19.50;40.90;;;;;;6052351;23;20858;-84
2022/03/22 13:00:42;;;;;;;10.23;8.30;;;19.50;40.80;;;;;;6053338;23;20229;-85
2022/03/22 13:03:16;;;;;;;11.18;8.63;;;19.50;40.90;;;;;;6100261;23;20154;-85
2022/03/22 13:05:50;;;;;;;11.23;8.77;;;19.50;40.90;;;;;;6073632;23;20154;-84
2022/03/22 13:08:20;;;;;;;10.02;8.25;;;19.50;40.70;;;;;;6075876;23;20151;-85
2022/03/22 13:15:01;;;;;;;11.40;8.60;;;19.60;41.10;;;;;;6084545;23;20563;-85
2022/03/22 13:16:28;;;;;;;11.13;8.73;;;19.60;40.90;;;;;;6087455;23;20155;-85
2022/03/22 13:19:02;;;;;;;10.52;8.27;;;19.60;40.60;;;;;;6120514;23;20167;-85
2022/03/22 13:21:30;;;;;;;11.10;8.15;;;19.50;41.20;;;;;;6071099;23;20155;-84
2022/03/22 13:24:17;;;;;;;9.95;8.68;;;19.50;40.90;;;;;;6093648;23;20175;-83
2022/03/22 13:27:00;;;;;;;10.45;8.27;;;19.50;40.90;;;;;;6069515;23;20155;-86
2022/03/22 13:29:38;;;;;;;12.02;8.50;;;19.60;40.90;;;;;;6118951;23;20150;-87
2022/03/22 13:32:07;;;;;;;10.38;8.25;;;19.60;41.20;;;;;;6115101;23;20143;-84